createdAt,value
2019-04-25T00:02:21.311Z,8.30
2019-04-25T00:04:51.564Z,8.37
2019-04-25T00:07:21.717Z,7.40
2019-04-25T00:09:52.849Z,7.63
2019-04-25T00:12:22.711Z,7.97
2019-04-25T00:14:52.089Z,7.37
2019-04-25T00:17:22.706Z,7.27
2019-04-25T00:19:52.858Z,7.73
2019-04-25T00:22:33.148Z,7.60
2019-04-25T00:25:15.201Z,7.67
2019-04-25T00:27:38.255Z,7.03
2019-04-25T00:30:11.997Z,7.63
2019-04-25T00:32:43.168Z,7.30
2019-04-25T00:35:13.502Z,8.37
2019-04-25T00:37:48.606Z,8.20
2019-04-25T00:40:17.880Z,7.83
2019-04-25T00:42:47.223Z,7.40
2019-04-25T00:45:16.386Z,7.90
2019-04-25T00:47:45.864Z,7.23
2019-04-25T00:50:15.375Z,7.77
2019-04-25T00:52:44.880Z,7.33
2019-04-25T00:55:25.937Z,7.67
2019-04-25T00:57:47.107Z,7.40
2019-04-25T01:00:34.696Z,6.80
2019-04-25T01:03:05.834Z,6.90
2019-04-25T01:05:35.279Z,6.73
2019-04-25T01:08:04.530Z,7.33
2019-04-25T01:10:34.276Z,7.00
2019-04-25T01:13:03.581Z,7.40
2019-04-25T01:15:34.977Z,7.17
2019-04-25T01:18:04.586Z,6.47
2019-04-25T01:20:34.517Z,7.27
2019-04-25T01:23:04.394Z,6.80
2019-04-25T01:25:40.911Z,6.13
2019-04-25T01:28:05.196Z,6.77
2019-04-25T01:30:35.213Z,7.20
2019-04-25T01:33:06.287Z,6.80
2019-04-25T01:35:44.785Z,7.13
2019-04-25T01:38:24.702Z,7.37
2019-04-25T01:40:58.460Z,6.90
2019-04-25T01:43:38.639Z,6.93
2019-04-25T01:46:10.578Z,7.57
2019-04-25T01:48:39.920Z,7.40
2019-04-25T01:51:09.358Z,7.10
2019-04-25T01:53:39.568Z,7.40
2019-04-25T01:56:08.872Z,6.90
2019-04-25T01:58:40.439Z,7.90
2019-04-25T02:01:10.295Z,7.93
2019-04-25T02:03:39.500Z,7.03
2019-04-25T02:06:08.725Z,6.60
2019-04-25T02:08:37.933Z,7.13
2019-04-25T02:11:25.195Z,7.23
2019-04-25T02:13:54.979Z,7.23
2019-04-25T02:16:26.135Z,7.83
2019-04-25T02:18:57.736Z,7.03
2019-04-25T02:21:27.493Z,6.90
2019-04-25T02:23:56.726Z,7.80
2019-04-25T02:26:25.891Z,8.00
2019-04-25T02:28:56.092Z,7.53
2019-04-25T02:31:25.848Z,7.40
2019-04-25T02:33:57.847Z,7.47
2019-04-25T02:36:26.356Z,7.47
2019-04-25T02:38:58.559Z,7.60
2019-04-25T02:41:26.453Z,8.00
2019-04-25T02:43:59.747Z,7.50
2019-04-25T02:46:45.041Z,7.70
2019-04-25T02:49:36.878Z,7.63
2019-04-25T02:52:07.783Z,8.10
2019-04-25T02:54:35.006Z,7.13
2019-04-25T02:57:07.777Z,7.37
2019-04-25T02:59:37.077Z,8.10
2019-04-25T03:02:09.091Z,7.90
2019-04-25T03:04:38.182Z,7.60
2019-04-25T03:07:11.122Z,7.77
2019-04-25T03:09:38.356Z,8.53
2019-04-25T03:12:09.349Z,7.73
2019-04-25T03:14:38.643Z,8.63
2019-04-25T03:17:09.719Z,8.67
2019-04-25T03:19:59.873Z,7.73
2019-04-25T03:22:31.399Z,7.80
2019-04-25T03:25:02.251Z,7.03
2019-04-25T03:27:31.975Z,7.80
2019-04-25T03:30:01.942Z,7.77
2019-04-25T03:32:31.411Z,7.30
2019-04-25T03:35:01.298Z,7.90
2019-04-25T03:37:30.775Z,7.47
2019-04-25T03:40:00.049Z,8.27
2019-04-25T03:42:29.297Z,7.40
2019-04-25T03:44:58.461Z,7.50
2019-04-25T03:47:27.763Z,7.87
2019-04-25T03:49:56.938Z,8.07
2019-04-25T03:52:26.107Z,7.67
2019-04-25T03:54:56.781Z,7.70
2019-04-25T03:57:26.157Z,7.87
2019-04-25T03:59:55.320Z,7.57
2019-04-25T04:02:24.485Z,7.60
2019-04-25T04:04:53.903Z,7.60
2019-04-25T04:07:23.821Z,7.10
2019-04-25T04:09:54.890Z,7.47
2019-04-25T04:12:24.904Z,8.20
2019-04-25T04:14:54.069Z,7.97
2019-04-25T04:17:41.222Z,8.07
2019-04-25T04:20:14.557Z,7.70
2019-04-25T04:22:45.134Z,7.97
2019-04-25T04:25:16.039Z,7.23
2019-04-25T04:27:45.226Z,8.57
2019-04-25T04:30:15.361Z,8.40
2019-04-25T04:32:44.981Z,8.57
2019-04-25T04:35:15.133Z,8.83
2019-04-25T04:37:46.177Z,8.97
2019-04-25T04:40:17.255Z,8.27
2019-04-25T04:42:46.429Z,8.47
2019-04-25T04:45:16.554Z,8.77
2019-04-25T04:47:46.631Z,8.40
2019-04-25T04:50:16.658Z,9.93
2019-04-25T04:52:46.379Z,9.00
2019-04-25T04:55:17.372Z,8.43
2019-04-25T04:57:46.887Z,8.37
2019-04-25T05:00:16.849Z,8.30
2019-04-25T05:02:50.990Z,9.20
2019-04-25T05:05:24.959Z,8.17
2019-04-25T05:08:03.777Z,7.77
2019-04-25T05:10:33.312Z,8.33
2019-04-25T05:13:04.248Z,7.97
2019-04-25T05:15:33.843Z,8.07
2019-04-25T05:18:04.036Z,7.93
2019-04-25T05:20:35.581Z,9.07
2019-04-25T05:23:04.991Z,8.43
2019-04-25T05:25:34.647Z,8.20
2019-04-25T05:28:05.302Z,8.40
2019-04-25T05:30:39.136Z,8.40
2019-04-25T05:33:08.297Z,7.63
2019-04-25T05:35:37.454Z,8.70
2019-04-25T05:38:06.646Z,8.30
2019-04-25T05:40:37.550Z,7.43
2019-04-25T05:43:08.347Z,7.87
2019-04-25T05:45:37.566Z,8.10
2019-04-25T05:48:06.878Z,8.57
2019-04-25T05:50:36.038Z,8.83
2019-04-25T05:53:05.249Z,8.73
2019-04-25T05:55:34.478Z,8.33
2019-04-25T05:58:04.077Z,8.73
2019-04-25T06:00:34.167Z,9.00
2019-04-25T06:03:03.748Z,8.57
2019-04-25T06:05:33.641Z,8.30
2019-04-25T06:08:04.494Z,7.80
2019-04-25T06:10:39.566Z,7.70
2019-04-25T06:13:13.801Z,7.33
2019-04-25T06:15:48.484Z,7.23
2019-04-25T06:18:28.522Z,8.10
2019-04-25T06:20:57.682Z,7.60
2019-04-25T06:23:45.804Z,7.17
2019-04-25T06:26:24.769Z,7.70
2019-04-25T06:28:52.269Z,7.80
2019-04-25T06:31:19.757Z,7.83
2019-04-25T06:33:49.261Z,8.23
2019-04-25T06:36:18.743Z,7.50
2019-04-25T06:38:48.491Z,7.80
2019-04-25T06:41:17.682Z,6.90
2019-04-25T06:43:48.523Z,7.50
2019-04-25T06:46:35.442Z,7.50
2019-04-25T06:49:09.479Z,7.87
2019-04-25T06:51:51.909Z,7.20
2019-04-25T06:54:21.979Z,7.27
2019-04-25T06:56:53.564Z,7.90
2019-04-25T06:59:25.937Z,6.97
2019-04-25T07:01:56.245Z,7.40
2019-04-25T07:04:27.094Z,7.77
2019-04-25T07:07:09.369Z,8.13
2019-04-25T07:09:29.587Z,7.43
2019-04-25T07:11:58.866Z,7.53
2019-04-25T07:14:28.215Z,7.40
2019-04-25T07:16:57.526Z,7.40
2019-04-25T07:19:27.980Z,7.33
2019-04-25T07:21:57.447Z,7.27
2019-04-25T07:24:27.264Z,7.50
2019-04-25T07:27:05.309Z,8.10
2019-04-25T07:29:36.183Z,7.57
2019-04-25T07:32:24.232Z,8.07
2019-04-25T07:34:53.621Z,8.07
2019-04-25T07:37:25.954Z,7.90
2019-04-25T07:39:55.403Z,7.37
2019-04-25T07:42:25.945Z,7.47
2019-04-25T07:44:55.386Z,7.60
2019-04-25T07:47:24.675Z,7.43
2019-04-25T07:49:54.613Z,7.23
2019-04-25T07:52:24.193Z,7.03
2019-04-25T07:54:53.917Z,8.07
2019-04-25T07:57:23.824Z,6.97
2019-04-25T07:59:53.764Z,7.53
2019-04-25T08:02:23.436Z,7.60
2019-04-25T08:04:54.139Z,7.70
2019-04-25T08:07:24.069Z,7.27
2019-04-25T08:09:54.276Z,7.33
2019-04-25T08:12:25.247Z,6.90
2019-04-25T08:14:59.046Z,6.83
2019-04-25T08:17:46.654Z,7.43
2019-04-25T08:20:17.271Z,7.20
2019-04-25T08:22:56.273Z,6.63
2019-04-25T08:25:18.265Z,7.63
2019-04-25T08:27:47.534Z,6.50
2019-04-25T08:30:17.707Z,6.93
2019-04-25T08:32:47.018Z,7.53
2019-04-25T08:35:16.369Z,6.97
2019-04-25T08:37:46.547Z,7.00
2019-04-25T08:40:16.948Z,7.03
2019-04-25T08:42:46.220Z,6.20
2019-04-25T08:45:16.332Z,7.17
2019-04-25T08:47:45.555Z,6.93
2019-04-25T08:50:29.110Z,7.27
2019-04-25T08:52:50.585Z,7.07
2019-04-25T08:55:38.315Z,7.23
2019-04-25T08:58:15.423Z,7.07
2019-04-25T09:01:04.019Z,7.30
2019-04-25T09:03:40.902Z,7.40
2019-04-25T09:06:10.927Z,6.47
2019-04-25T09:08:41.014Z,6.90
2019-04-25T09:11:10.713Z,6.50
2019-04-25T09:13:39.913Z,7.23
2019-04-25T09:16:09.069Z,7.10
2019-04-25T09:18:38.247Z,6.60
2019-04-25T09:21:07.514Z,7.27
2019-04-25T09:23:37.861Z,6.43
2019-04-25T09:26:07.209Z,6.43
2019-04-25T09:28:39.141Z,6.40
2019-04-25T09:31:07.558Z,6.53
2019-04-25T09:33:37.190Z,6.20
2019-04-25T09:36:06.918Z,6.70
2019-04-25T09:38:36.926Z,6.20
2019-04-25T09:41:06.373Z,6.03
2019-04-25T09:43:35.843Z,6.57
2019-04-25T09:46:07.100Z,6.47
2019-04-25T09:48:44.639Z,6.33
2019-04-25T09:51:19.397Z,6.50
2019-04-25T09:53:51.460Z,6.23
2019-04-25T09:56:23.918Z,6.43
2019-04-25T09:58:55.047Z,6.60
2019-04-25T10:01:25.380Z,6.77
2019-04-25T10:03:54.610Z,5.77
2019-04-25T10:06:24.119Z,6.27
2019-04-25T10:08:54.307Z,6.93
2019-04-25T10:11:23.825Z,5.80
2019-04-25T10:14:05.064Z,5.70
2019-04-25T10:16:35.062Z,5.90
2019-04-25T10:19:04.644Z,6.33
2019-04-25T10:21:34.323Z,6.43
2019-04-25T10:24:04.190Z,5.70
2019-04-25T10:26:34.913Z,5.80
2019-04-25T10:29:05.157Z,6.27
2019-04-25T10:31:34.401Z,5.57
2019-04-25T10:34:04.210Z,6.17
2019-04-25T10:36:33.688Z,6.33
2019-04-25T10:39:08.595Z,6.43
2019-04-25T10:41:35.929Z,5.53
2019-04-25T10:44:05.938Z,6.30
2019-04-25T10:46:35.242Z,5.77
2019-04-25T10:49:04.557Z,6.20
2019-04-25T10:51:34.330Z,6.10
2019-04-25T10:54:04.109Z,5.47
2019-04-25T10:56:33.637Z,5.33
2019-04-25T10:59:04.251Z,5.40
2019-04-25T11:01:34.979Z,5.50
2019-04-25T11:04:06.556Z,5.80
2019-04-25T11:06:35.896Z,5.23
2019-04-25T11:09:07.468Z,5.83
2019-04-25T11:11:36.685Z,4.97
2019-04-25T11:14:07.460Z,5.47
2019-04-25T11:16:36.866Z,5.63
2019-04-25T11:19:06.177Z,5.77
2019-04-25T11:21:35.586Z,5.40
2019-04-25T11:24:05.366Z,5.90
2019-04-25T11:26:34.765Z,6.70
2019-04-25T11:29:04.430Z,6.17
2019-04-25T11:31:35.534Z,5.37
2019-04-25T11:34:05.432Z,5.57
2019-04-25T11:36:34.622Z,6.10
2019-04-25T11:39:23.913Z,5.80
2019-04-25T11:41:55.351Z,6.00
2019-04-25T11:44:24.628Z,6.00
2019-04-25T11:46:54.299Z,6.43
2019-04-25T11:49:24.546Z,5.50
2019-04-25T11:51:54.468Z,6.33
2019-04-25T11:54:24.401Z,5.37
2019-04-25T11:56:54.778Z,5.77
2019-04-25T11:59:24.984Z,6.80
2019-04-25T12:01:56.099Z,5.83
2019-04-25T12:04:25.036Z,6.03
2019-04-25T12:06:54.218Z,6.17
2019-04-25T12:09:24.155Z,6.03
2019-04-25T12:11:54.465Z,5.73
2019-04-25T12:14:25.321Z,5.73
2019-04-25T12:16:56.104Z,5.60
2019-04-25T12:19:35.035Z,5.60
2019-04-25T12:21:58.179Z,6.23
2019-04-25T12:24:27.353Z,6.03
2019-04-25T12:26:56.571Z,6.50
2019-04-25T12:29:25.791Z,5.50
2019-04-25T12:31:55.041Z,6.30
2019-04-25T12:34:24.374Z,5.70
2019-04-25T12:36:54.495Z,5.50
2019-04-25T12:39:24.353Z,5.60
2019-04-25T12:41:54.509Z,5.67
2019-04-25T12:44:29.536Z,6.27
2019-04-25T12:47:18.164Z,6.03
2019-04-25T12:49:48.667Z,5.90
2019-04-25T12:52:18.025Z,6.73
2019-04-25T12:54:47.589Z,6.23
2019-04-25T12:57:17.078Z,6.17
2019-04-25T12:59:47.302Z,6.57
2019-04-25T13:02:17.009Z,7.10
2019-04-25T13:04:47.668Z,6.43
2019-04-25T13:07:16.990Z,6.50
2019-04-25T13:09:47.067Z,7.47
2019-04-25T13:12:17.475Z,6.67
2019-04-25T13:14:46.719Z,7.23
2019-04-25T13:17:16.153Z,6.80
2019-04-25T13:19:45.309Z,7.70
2019-04-25T13:22:15.131Z,7.00
2019-04-25T13:24:44.359Z,7.20
2019-04-25T13:27:15.260Z,7.50
2019-04-25T13:30:03.767Z,6.60
2019-04-25T13:32:35.192Z,6.47
2019-04-25T13:35:09.885Z,7.20
2019-04-25T13:37:40.062Z,6.83
2019-04-25T13:40:10.113Z,6.50
2019-04-25T13:42:39.339Z,7.00
2019-04-25T13:45:08.666Z,7.23
2019-04-25T13:47:38.060Z,6.60
2019-04-25T13:50:08.075Z,6.83
2019-04-25T13:52:37.301Z,7.20
2019-04-25T13:55:06.590Z,7.20
2019-04-25T13:57:35.785Z,7.17
2019-04-25T14:00:06.965Z,6.77
2019-04-25T14:02:36.205Z,6.63
2019-04-25T14:05:08.009Z,7.07
2019-04-25T14:07:37.237Z,6.70
2019-04-25T14:10:06.964Z,5.87
2019-04-25T14:12:36.177Z,5.97
2019-04-25T14:15:07.528Z,5.77
2019-04-25T14:17:54.941Z,5.97
2019-04-25T14:20:34.693Z,5.73
2019-04-25T14:23:04.760Z,6.20
2019-04-25T14:25:36.383Z,5.77
2019-04-25T14:28:06.220Z,6.27
2019-04-25T14:30:36.034Z,6.27
2019-04-25T14:33:05.556Z,6.87
2019-04-25T14:35:34.793Z,6.07
2019-04-25T14:38:04.631Z,5.90
2019-04-25T14:40:34.770Z,5.70
2019-04-25T14:43:04.883Z,5.93
2019-04-25T14:45:43.992Z,6.23
2019-04-25T14:48:05.285Z,5.80
2019-04-25T14:50:34.779Z,6.30
2019-04-25T14:53:04.131Z,5.80
2019-04-25T14:55:35.158Z,6.37
2019-04-25T14:58:06.036Z,6.30
2019-04-25T15:00:43.057Z,5.87
2019-04-25T15:03:12.218Z,6.43
2019-04-25T15:05:43.506Z,6.17
2019-04-25T15:08:12.975Z,5.77
2019-04-25T15:10:42.132Z,6.23
2019-04-25T15:13:11.453Z,5.93
2019-04-25T15:15:40.725Z,6.27
2019-04-25T15:18:09.885Z,6.27
2019-04-25T15:20:39.277Z,6.30
2019-04-25T15:23:08.475Z,6.20
2019-04-25T15:25:37.622Z,7.10
2019-04-25T15:28:06.937Z,6.77
2019-04-25T15:30:38.286Z,6.03
2019-04-25T15:33:07.650Z,6.47
2019-04-25T15:35:41.143Z,6.90
2019-04-25T15:38:20.859Z,6.30
2019-04-25T15:40:54.507Z,7.20
2019-04-25T15:43:28.414Z,6.27
2019-04-25T15:46:08.051Z,6.50
2019-04-25T15:48:37.922Z,6.20
2019-04-25T15:51:07.085Z,6.23
2019-04-25T15:53:36.323Z,6.57
2019-04-25T15:56:06.930Z,5.90
2019-04-25T15:58:37.358Z,5.80
2019-04-25T16:01:08.257Z,6.20
2019-04-25T16:03:37.525Z,6.53
2019-04-25T16:06:06.697Z,6.60
2019-04-25T16:08:35.865Z,6.00
2019-04-25T16:11:05.331Z,6.20
2019-04-25T16:13:34.583Z,6.03
2019-04-25T16:16:04.539Z,6.70
2019-04-25T16:18:33.909Z,5.67
2019-04-25T16:21:03.311Z,5.70
2019-04-25T16:23:32.544Z,6.07
2019-04-25T16:26:01.832Z,5.87
2019-04-25T16:28:31.742Z,5.90
2019-04-25T16:31:04.296Z,6.40
2019-04-25T16:33:33.212Z,6.17
2019-04-25T16:36:02.950Z,5.60
2019-04-25T16:38:33.285Z,5.93
2019-04-25T16:41:04.432Z,5.90
2019-04-25T16:43:35.271Z,6.13
2019-04-25T16:46:04.566Z,6.10
2019-04-25T16:48:34.478Z,5.90
2019-04-25T16:51:03.650Z,6.23
2019-04-25T16:53:32.887Z,6.13
2019-04-25T16:56:02.086Z,5.97
2019-04-25T16:58:31.467Z,6.00
2019-04-25T17:01:11.583Z,5.93
2019-04-25T17:03:41.503Z,5.67
2019-04-25T17:06:10.861Z,6.10
2019-04-25T17:08:40.287Z,5.73
2019-04-25T17:11:10.032Z,6.33
2019-04-25T17:13:40.899Z,6.00
2019-04-25T17:16:11.820Z,5.60
2019-04-25T17:18:42.694Z,5.80
2019-04-25T17:21:11.923Z,6.63
2019-04-25T17:23:41.285Z,6.50
2019-04-25T17:26:10.677Z,5.87
2019-04-25T17:28:41.541Z,7.20
2019-04-25T17:31:24.293Z,7.57
2019-04-25T17:34:04.809Z,6.90
2019-04-25T17:36:38.910Z,6.70
2019-04-25T17:39:09.711Z,6.70
2019-04-25T17:41:38.883Z,6.30
2019-04-25T17:44:08.159Z,7.23
2019-04-25T17:46:37.328Z,8.40
2019-04-25T17:49:06.617Z,6.63
2019-04-25T17:51:36.641Z,6.50
2019-04-25T17:54:06.820Z,6.33
2019-04-25T17:56:38.523Z,6.63
2019-04-25T17:59:08.394Z,7.10
2019-04-25T18:01:37.972Z,6.97
2019-04-25T18:04:10.531Z,6.63
2019-04-25T18:06:42.014Z,6.97
2019-04-25T18:09:11.602Z,7.17
2019-04-25T18:11:40.841Z,7.23
2019-04-25T18:14:10.045Z,6.80
2019-04-25T18:16:40.851Z,6.83
2019-04-25T18:19:12.702Z,6.77
2019-04-25T18:21:42.835Z,7.10
2019-04-25T18:24:30.608Z,6.73
2019-04-25T18:27:01.588Z,7.63
2019-04-25T18:29:30.740Z,7.43
2019-04-25T18:31:59.907Z,7.20
2019-04-25T18:34:46.793Z,6.80
2019-04-25T18:37:26.619Z,7.67
2019-04-25T18:40:03.646Z,7.47
2019-04-25T18:42:37.839Z,7.27
2019-04-25T18:45:08.619Z,7.23
2019-04-25T18:47:38.243Z,6.93
2019-04-25T18:50:09.287Z,7.43
2019-04-25T18:52:47.124Z,7.90
2019-04-25T18:55:23.735Z,8.60
2019-04-25T18:57:54.573Z,8.57
2019-04-25T19:00:25.532Z,7.67
2019-04-25T19:02:56.406Z,7.97
2019-04-25T19:05:30.253Z,8.17
2019-04-25T19:07:59.415Z,8.17
2019-04-25T19:10:28.575Z,9.10
2019-04-25T19:12:57.782Z,8.13
2019-04-25T19:15:27.113Z,8.07
2019-04-25T19:17:56.329Z,8.40
2019-04-25T19:20:25.612Z,8.57
2019-04-25T19:22:54.781Z,8.37
2019-04-25T19:25:24.006Z,9.20
2019-04-25T19:27:53.205Z,9.43
2019-04-25T19:30:23.007Z,8.37
2019-04-25T19:32:52.176Z,8.30
2019-04-25T19:35:21.530Z,9.57
2019-04-25T19:37:51.247Z,9.73
2019-04-25T19:40:22.110Z,9.07
2019-04-25T19:42:55.355Z,8.87
2019-04-25T19:45:24.506Z,9.20
2019-04-25T19:47:53.663Z,9.17
2019-04-25T19:50:23.340Z,10.07
2019-04-25T19:52:52.582Z,9.23
2019-04-25T19:55:21.735Z,9.03
2019-04-25T19:57:50.932Z,9.03
2019-04-25T20:00:20.493Z,9.37
2019-04-25T20:02:59.952Z,10.20
2019-04-25T20:05:33.232Z,10.17
2019-04-25T20:08:12.980Z,9.37
2019-04-25T20:10:44.998Z,9.80
2019-04-25T20:13:14.401Z,9.73
2019-04-25T20:15:44.574Z,10.33
2019-04-25T20:18:14.683Z,10.57
2019-04-25T20:20:45.014Z,11.37
2019-04-25T20:23:14.921Z,11.13
2019-04-25T20:25:45.393Z,10.80
2019-04-25T20:28:15.073Z,9.83
2019-04-25T20:30:45.452Z,10.43
2019-04-25T20:33:14.913Z,9.50
2019-04-25T20:35:44.885Z,10.50
2019-04-25T20:38:16.869Z,10.90
2019-04-25T20:40:46.710Z,10.80
2019-04-25T20:43:17.079Z,10.13
2019-04-25T20:45:46.932Z,11.07
2019-04-25T20:48:17.334Z,10.77
2019-04-25T20:50:46.923Z,10.60
2019-04-25T20:53:16.352Z,10.30
2019-04-25T20:55:46.470Z,11.83
2019-04-25T20:58:16.394Z,11.37
2019-04-25T21:00:48.337Z,11.43
2019-04-25T21:03:18.680Z,11.23
2019-04-25T21:05:49.700Z,10.53
2019-04-25T21:08:19.520Z,10.90
2019-04-25T21:10:49.629Z,10.57
2019-04-25T21:13:21.190Z,10.33
2019-04-25T21:15:52.202Z,10.47
2019-04-25T21:18:29.505Z,11.17
2019-04-25T21:20:59.184Z,11.63
2019-04-25T21:23:28.834Z,10.77
2019-04-25T21:25:58.887Z,11.23
2019-04-25T21:28:28.659Z,10.63
2019-04-25T21:30:58.731Z,11.13
2019-04-25T21:33:28.168Z,11.90
2019-04-25T21:35:58.047Z,11.43
2019-04-25T21:38:27.402Z,11.67
2019-04-25T21:40:58.278Z,11.10
2019-04-25T21:43:32.338Z,11.70
2019-04-25T21:46:02.792Z,10.77
2019-04-25T21:48:32.502Z,11.60
2019-04-25T21:51:03.659Z,11.27
2019-04-25T21:53:32.863Z,10.50
2019-04-25T21:56:02.601Z,11.23
2019-04-25T21:58:32.185Z,10.87
2019-04-25T22:01:04.481Z,11.57
2019-04-25T22:03:34.444Z,10.67
2019-04-25T22:06:05.003Z,10.17
2019-04-25T22:08:34.444Z,10.73
2019-04-25T22:11:03.681Z,11.93
2019-04-25T22:13:33.136Z,11.27
2019-04-25T22:16:02.831Z,11.17
2019-04-25T22:18:33.293Z,10.90
2019-04-25T22:21:02.566Z,11.80
2019-04-25T22:23:32.877Z,11.60
2019-04-25T22:26:02.963Z,11.30
2019-04-25T22:28:33.910Z,10.73
2019-04-25T22:31:13.992Z,10.73
2019-04-25T22:33:47.628Z,10.67
2019-04-25T22:36:22.560Z,10.47
2019-04-25T22:39:09.656Z,10.80
2019-04-25T22:41:46.561Z,11.30
2019-04-25T22:44:15.790Z,10.37
2019-04-25T22:46:45.552Z,10.33
2019-04-25T22:49:15.315Z,10.27
2019-04-25T22:51:44.527Z,11.33
2019-04-25T22:54:14.068Z,10.47
2019-04-25T22:56:43.307Z,10.53
2019-04-25T22:59:13.239Z,11.03
2019-04-25T23:01:46.455Z,11.00
2019-04-25T23:04:26.102Z,11.60
2019-04-25T23:06:55.343Z,10.90
2019-04-25T23:09:24.872Z,11.07
2019-04-25T23:11:54.560Z,10.53
2019-04-25T23:14:24.099Z,11.07
2019-04-25T23:16:53.707Z,10.60
2019-04-25T23:19:23.363Z,10.80
2019-04-25T23:21:53.005Z,10.43
2019-04-25T23:24:23.900Z,10.50
2019-04-25T23:27:05.269Z,11.40
2019-04-25T23:29:35.670Z,11.30
2019-04-25T23:32:06.678Z,10.10
2019-04-25T23:34:36.155Z,11.20
2019-04-25T23:37:06.222Z,10.83
2019-04-25T23:39:36.262Z,12.57
2019-04-25T23:42:06.064Z,11.47
2019-04-25T23:44:36.605Z,11.27
2019-04-25T23:47:06.871Z,10.87
2019-04-25T23:49:36.826Z,11.13
2019-04-25T23:52:07.315Z,11.80
2019-04-25T23:54:36.841Z,10.87
2019-04-25T23:57:07.073Z,11.63
2019-04-25T23:59:37.297Z,10.93
